Time;durP1;ratioP1;P1;durP2;ratioP2;P2;SDS_P1;SDS_P2;PMS_P1;PMS_P2;Temp;Humidity;BMP_temperature;BMP_pressure;BME280_temperature;BME280_humidity;BME280_pressure;Samples;Min_cycle;Max_cycle;Signal;HPM_P1;HPM_P2
2022/01/19 00:00:13;;;;;;;6.53;3.07;;;;;;;-0.59;69.02;101902.31;5001935;28;20017;-77
2022/01/19 00:02:39;;;;;;;6.80;2.80;;;;;;;-0.58;70.05;101926.94;4967016;28;20570;-77
2022/01/19 00:05:08;;;;;;;6.93;3.27;;;;;;;-0.50;69.84;101925.22;5011490;28;20491;-78
2022/01/19 00:07:36;;;;;;;5.03;2.90;;;;;;;-0.54;69.83;101923.09;5011756;28;20100;-77
2022/01/19 00:10:05;;;;;;;6.23;3.50;;;;;;;-0.40;69.27;101943.22;5011380;28;20036;-77
2022/01/19 00:12:32;;;;;;;6.63;3.40;;;;;;;-0.38;69.43;101949.34;5011747;28;20033;-78
2022/01/19 00:14:58;;;;;;;8.70;4.07;;;;;;;-0.51;70.88;101959.84;5010900;28;20045;-78
2022/01/19 00:17:24;;;;;;;6.90;2.90;;;;;;;-0.62;69.79;101939.16;4998332;28;20033;-77
2022/01/19 00:19:49;;;;;;;6.77;2.63;;;;;;;-0.44;70.33;101960.50;4991829;28;20030;-81
2022/01/19 00:22:14;;;;;;;9.30;5.10;;;;;;;-0.40;69.62;101967.69;5001747;28;20054;-79
2022/01/19 00:24:41;;;;;;;7.77;3.27;;;;;;;-0.58;70.07;101966.66;4988871;28;20045;-78
2022/01/19 00:27:07;;;;;;;6.80;3.33;;;;;;;-0.63;70.12;101953.47;5000139;28;20034;-78
2022/01/19 00:29:33;;;;;;;6.60;3.07;;;;;;;-0.62;71.18;101975.56;4991503;28;20030;-78
2022/01/19 00:31:59;;;;;;;7.03;3.60;;;;;;;-0.69;71.21;101968.03;4974125;28;20030;-77
2022/01/19 00:34:24;;;;;;;7.83;3.63;;;;;;;-0.90;70.84;101939.66;4991236;28;20400;-78
2022/01/19 00:36:50;;;;;;;7.17;3.40;;;;;;;-0.64;70.20;101974.50;4991600;28;20080;-77
2022/01/19 00:39:15;;;;;;;8.70;3.03;;;;;;;-0.61;70.33;101982.44;4991284;28;20118;-81
2022/01/19 00:41:41;;;;;;;8.27;3.30;;;;;;;-0.60;70.00;101968.13;4991466;28;20030;-80
2022/01/19 00:44:06;;;;;;;6.63;3.13;;;;;;;-0.60;69.52;101984.22;4991435;28;20034;-79
2022/01/19 00:46:32;;;;;;;7.83;3.50;;;;;;;-0.66;70.18;101981.06;4995496;28;20046;-78
2022/01/19 00:48:58;;;;;;;7.13;3.57;;;;;;;-0.55;69.67;101993.25;5000951;28;20045;-78
2022/01/19 00:51:23;;;;;;;6.37;3.13;;;;;;;-0.64;67.90;101999.88;5003864;28;20057;-77
2022/01/19 00:53:48;;;;;;;7.33;3.10;;;;;;;-0.76;68.49;102003.63;5011186;28;20029;-77
2022/01/19 00:56:14;;;;;;;6.07;2.80;;;;;;;-0.95;68.91;101985.53;5008216;28;20140;-76
2022/01/19 00:58:39;;;;;;;7.50;3.23;;;;;;;-0.90;68.86;101992.91;5010830;28;20038;-77
2022/01/19 01:01:05;;;;;;;7.40;3.30;;;;;;;-0.98;69.35;101988.66;5011002;28;20461;-78
2022/01/19 01:03:30;;;;;;;6.97;3.40;;;;;;;-0.96;68.85;101982.09;5011136;28;20041;-79
2022/01/19 01:05:59;;;;;;;5.67;2.70;;;;;;;-0.93;68.66;101973.94;5010978;28;20030;-87
2022/01/19 01:08:24;;;;;;;7.93;3.17;;;;;;;-1.02;68.13;101940.91;4996896;28;20042;-87
2022/01/19 01:10:51;;;;;;;6.83;3.03;;;;;;;-0.72;68.01;101978.75;4974098;28;20026;-88
2022/01/19 01:18:20;;;;;;;7.50;3.23;;;;;;;-0.84;67.21;101969.84;4991286;28;20033;-80
2022/01/19 01:20:48;;;;;;;7.07;2.90;;;;;;;-0.96;67.26;101964.34;4991207;28;20113;-76
2022/01/19 01:23:14;;;;;;;6.90;2.90;;;;;;;-0.62;67.45;101989.88;4990849;28;20030;-72
2022/01/19 01:25:39;;;;;;;8.77;4.20;;;;;;;-0.55;67.47;102008.47;4991224;28;20412;-71
2022/01/19 01:28:06;;;;;;;7.70;3.17;;;;;;;-0.47;67.64;102000.75;4992697;28;20408;-72
2022/01/19 01:30:32;;;;;;;8.20;3.50;;;;;;;-0.41;67.83;102006.47;4994838;28;20041;-71
2022/01/19 01:32:58;;;;;;;7.57;3.20;;;;;;;-0.43;68.19;101993.63;4994719;28;20018;-71
2022/01/19 01:35:23;;;;;;;6.07;3.10;;;;;;;-0.62;67.95;101956.91;4977200;28;20414;-71
2022/01/19 01:37:49;;;;;;;8.90;3.60;;;;;;;-0.48;68.14;101998.97;4994170;28;20049;-72
2022/01/19 01:40:15;;;;;;;7.90;3.50;;;;;;;-0.48;68.10;102006.59;4993950;28;20476;-72
2022/01/19 01:42:41;;;;;;;6.50;3.53;;;;;;;-0.72;68.45;101962.66;4993863;28;20030;-71
2022/01/19 01:45:13;;;;;;;7.93;3.80;;;;;;;-0.46;68.64;102002.53;4994345;28;20030;-72
2022/01/19 01:47:44;;;;;;;7.57;3.43;;;;;;;-0.44;68.74;102016.31;4993629;28;20118;-72
2022/01/19 01:55:23;;;;;;;9.73;3.70;;;;;;;-0.80;71.70;102015.06;5014310;28;20041;-72
2022/01/19 01:57:49;;;;;;;9.23;3.47;;;;;;;-0.68;72.05;102010.44;5013868;28;20533;-71
2022/01/19 02:00:20;;;;;;;7.67;3.77;;;;;;;-0.73;72.58;102011.56;5013702;28;20052;-72
2022/01/19 02:02:47;;;;;;;9.37;4.57;;;;;;;-0.63;72.35;102008.38;5013966;28;20400;-72
2022/01/19 02:05:14;;;;;;;9.40;3.40;;;;;;;-0.57;73.03;101996.38;5013889;28;20076;-71
2022/01/19 02:08:00;;;;;;;7.83;4.50;;;;;;;-0.55;72.09;101994.88;5013939;28;20081;-71
2022/01/19 02:10:59;;;;;;;7.27;3.17;;;;;;;-0.50;71.36;101986.09;5013754;28;20407;-72
2022/01/19 02:16:21;;;;;;;7.53;3.90;;;;;;;-0.59;71.01;101991.09;5005047;28;20428;-73
2022/01/19 02:21:45;;;;;;;7.03;3.60;;;;;;;-0.51;69.57;101997.00;5012032;28;20037;-72
2022/01/19 02:24:17;;;;;;;11.70;5.47;;;;;;;-0.82;69.25;101943.91;5001278;28;20088;-72
2022/01/19 02:27:01;;;;;;;8.37;4.43;;;;;;;-0.80;70.22;101943.19;4998584;28;20035;-71
2022/01/19 02:40:30;;;;;;;9.37;4.63;;;;;;;-0.92;71.58;101981.72;4913618;29;20087;-71
2022/01/19 02:43:07;;;;;;;7.63;4.10;;;;;;;-0.88;72.20;102011.72;4898080;29;20127;-71
2022/01/19 02:51:06;;;;;;;10.37;4.83;;;;;;;-1.12;72.80;101966.91;4914432;29;20051;-70
2022/01/19 02:53:38;;;;;;;7.17;3.43;;;;;;;-0.91;69.42;101997.81;4914341;29;20040;-70
2022/01/19 02:56:12;;;;;;;6.63;3.30;;;;;;;-0.88;69.22;102000.69;4913448;29;20032;-71
2022/01/19 02:58:51;;;;;;;9.77;4.20;;;;;;;-0.83;70.05;102000.44;4913388;29;20040;-70
2022/01/19 03:09:27;;;;;;;10.80;3.97;;;;;;;-1.43;72.13;101996.50;4911185;29;20129;-73
2022/01/19 03:11:54;;;;;;;6.93;3.70;;;;;;;-1.61;73.86;101984.34;4912437;29;20055;-74
2022/01/19 03:14:20;;;;;;;9.20;4.33;;;;;;;-1.56;74.37;102006.91;4913026;29;20040;-73
2022/01/19 03:16:46;;;;;;;8.90;4.23;;;;;;;-1.86;75.06;101992.63;4922993;28;20428;-73
2022/01/19 03:19:12;;;;;;;11.80;4.00;;;;;;;-1.97;76.23;102014.25;4976526;28;20041;-73
2022/01/19 03:21:41;;;;;;;7.57;3.80;;;;;;;-2.07;76.56;102005.44;4992792;28;20019;-73
2022/01/19 03:24:08;;;;;;;8.53;3.13;;;;;;;-2.14;77.64;102017.41;4992398;28;20073;-74
2022/01/19 03:26:34;;;;;;;9.83;4.80;;;;;;;-2.38;79.29;102015.53;4994806;28;20042;-71
2022/01/19 03:28:59;;;;;;;7.30;4.73;;;;;;;-2.45;79.07;102018.09;4994755;28;20076;-71
2022/01/19 03:31:25;;;;;;;8.07;3.60;;;;;;;-2.46;79.53;102022.22;4996239;28;20096;-71
2022/01/19 03:33:50;;;;;;;8.93;3.90;;;;;;;-2.55;79.13;101998.44;4992505;28;20026;-72
2022/01/19 03:36:17;;;;;;;8.90;3.83;;;;;;;-2.46;79.48;102014.66;4992395;28;20404;-71
2022/01/19 03:38:43;;;;;;;14.70;5.50;;;;;;;-2.56;79.88;102010.91;4992306;28;20385;-72
2022/01/19 03:41:09;;;;;;;15.63;5.30;;;;;;;-2.56;79.08;102032.03;4992386;28;20481;-71
2022/01/19 03:43:34;;;;;;;11.87;5.00;;;;;;;-2.72;79.96;102031.00;4992402;28;20117;-72
2022/01/19 03:46:02;;;;;;;9.13;4.90;;;;;;;-2.87;80.71;102012.44;4992246;28;20543;-72
2022/01/19 03:48:42;;;;;;;8.83;4.40;;;;;;;-2.71;80.06;102021.06;4992242;28;20038;-72
2022/01/19 03:51:08;;;;;;;10.13;4.80;;;;;;;-2.57;79.37;102030.22;4941259;28;20141;-72
2022/01/19 03:53:33;;;;;;;9.30;4.00;;;;;;;-2.58;79.40;102023.34;4992520;28;20211;-73
2022/01/19 03:55:59;;;;;;;13.03;4.00;;;;;;;-3.10;79.67;101961.06;4992117;28;20097;-72
2022/01/19 03:58:25;;;;;;;8.10;4.20;;;;;;;-2.85;80.42;102011.00;4992198;28;20030;-72
2022/01/19 04:00:54;;;;;;;9.63;4.60;;;;;;;-2.81;81.21;102028.31;4992552;28;20492;-72
2022/01/19 04:03:25;;;;;;;;;;;;;;;-2.93;81.49;102020.22;4992611;28;20026;-72
2022/01/19 04:08:16;;;;;;;8.93;4.23;;;;;;;-3.07;81.26;101967.19;4991781;28;20046;-72
2022/01/19 04:10:41;;;;;;;7.83;3.20;;;;;;;-2.84;81.22;102026.34;4991846;28;20041;-73
2022/01/19 04:13:22;;;;;;;8.47;3.50;;;;;;;-3.01;82.07;102005.81;4991952;28;20113;-72
2022/01/19 04:15:48;;;;;;;6.67;3.73;;;;;;;-3.22;82.61;101968.84;4991812;28;20034;-71
2022/01/19 04:18:14;;;;;;;6.97;3.87;;;;;;;-3.01;82.36;102008.34;4993412;28;20035;-73
2022/01/19 04:20:42;;;;;;;9.50;4.23;;;;;;;-2.94;81.35;102015.88;5011203;28;20030;-71
2022/01/19 04:23:07;;;;;;;9.93;3.73;;;;;;;-2.87;80.63;102015.88;4994509;28;20038;-71
2022/01/19 04:25:33;;;;;;;9.93;4.27;;;;;;;-2.72;79.88;102031.91;4991696;28;20408;-71
2022/01/19 04:27:59;;;;;;;10.63;3.83;;;;;;;-2.75;80.37;102029.03;4991871;28;20030;-71
2022/01/19 04:30:27;;;;;;;9.83;3.90;;;;;;;-2.76;79.73;102025.59;4993781;28;20112;-74
2022/01/19 04:35:27;;;;;;;12.57;4.30;;;;;;;-2.77;79.99;102046.56;5006982;28;20403;-72
2022/01/19 04:54:41;;;;;;;10.47;4.43;;;;;;;-2.71;79.24;102076.69;4912351;29;20605;-71
2022/01/19 05:05:28;;;;;;;6.87;3.97;;;;;;;-3.14;83.65;102082.69;4914965;29;20047;-73
2022/01/19 05:08:10;;;;;;;7.33;4.27;;;;;;;-3.03;82.96;102093.16;4915585;29;20032;-71
2022/01/19 05:13:30;;;;;;;9.20;4.27;;;;;;;-3.26;83.67;102079.59;4915581;29;20051;-71
2022/01/19 05:15:55;;;;;;;8.03;3.93;;;;;;;-3.20;83.71;102073.47;4915952;29;20072;-72
2022/01/19 05:18:21;;;;;;;10.60;4.57;;;;;;;-3.23;82.90;102071.50;4915708;29;20071;-71
2022/01/19 05:20:47;;;;;;;9.23;4.73;;;;;;;-3.14;82.87;102072.59;4915351;29;20478;-71
2022/01/19 05:23:14;;;;;;;9.67;4.40;;;;;;;-3.15;82.39;102065.72;4915301;29;20043;-71
2022/01/19 05:25:40;;;;;;;10.23;4.73;;;;;;;-3.17;83.41;102076.38;4945900;28;20054;-72
2022/01/19 05:28:05;;;;;;;10.60;5.03;;;;;;;-3.46;82.75;102023.34;4995024;28;20122;-72
2022/01/19 05:30:31;;;;;;;13.03;5.10;;;;;;;-3.09;82.02;102094.22;4994654;28;20022;-74
2022/01/19 05:32:56;;;;;;;11.27;5.20;;;;;;;-3.13;81.65;102096.22;4994478;28;20030;-71
2022/01/19 05:35:22;;;;;;;7.43;3.60;;;;;;;-3.24;81.43;102064.63;4992501;28;20488;-71
2022/01/19 05:37:48;;;;;;;14.80;7.97;;;;;;;-2.87;80.54;102108.47;4994591;28;20450;-71
2022/01/19 05:40:14;;;;;;;10.07;6.70;;;;;;;-2.63;79.35;102128.13;4994834;28;20034;-72
2022/01/19 05:42:40;;;;;;;10.73;4.80;;;;;;;-2.84;80.29;102122.38;4994803;28;20058;-72
2022/01/19 05:45:06;;;;;;;8.23;4.10;;;;;;;-3.00;81.61;102123.84;4994277;28;20062;-71
2022/01/19 05:47:32;;;;;;;8.67;3.70;;;;;;;-3.16;82.37;102134.66;4994173;28;20054;-71
2022/01/19 05:49:57;;;;;;;10.33;3.70;;;;;;;-3.53;84.14;102106.63;4992305;28;20503;-72
2022/01/19 05:52:23;;;;;;;9.67;4.60;;;;;;;-3.36;85.47;102146.53;4994144;28;20463;-71
2022/01/19 05:54:48;;;;;;;9.97;4.30;;;;;;;-3.34;86.02;102148.53;4994362;28;20041;-71
2022/01/19 05:57:14;;;;;;;6.70;4.60;;;;;;;-3.22;86.44;102159.19;4994269;28;20472;-71
2022/01/19 05:59:39;;;;;;;13.20;6.17;;;;;;;-3.05;84.91;102155.22;4994478;28;20037;-71
2022/01/19 06:02:05;;;;;;;15.80;7.33;;;;;;;-3.20;85.41;102114.81;4994253;28;20053;-72
2022/01/19 06:04:31;;;;;;;14.17;6.07;;;;;;;-2.91;84.70;102142.59;4994428;28;20034;-71
2022/01/19 06:06:57;;;;;;;11.20;4.83;;;;;;;-3.28;84.03;102093.69;4993957;28;20030;-71
2022/01/19 06:09:48;;;;;;;12.20;5.07;;;;;;;-3.12;84.88;102139.31;4994227;28;20060;-72
2022/01/19 06:12:15;;;;;;;11.40;5.20;;;;;;;-3.28;84.15;102095.31;4997647;28;20026;-73
2022/01/19 06:14:42;;;;;;;12.13;4.87;;;;;;;-3.48;83.64;102090.41;4994061;28;20088;-74
2022/01/19 06:17:10;;;;;;;12.93;4.97;;;;;;;-3.04;83.26;102141.88;4993943;28;20026;-73
2022/01/19 06:19:36;;;;;;;11.83;6.53;;;;;;;-3.32;82.85;102091.50;4993664;28;20423;-73
2022/01/19 06:22:01;;;;;;;12.80;5.17;;;;;;;-3.37;84.06;102109.38;4993852;28;20039;-73
2022/01/19 06:24:27;;;;;;;13.20;4.97;;;;;;;-3.54;85.19;102123.38;4994045;28;20125;-73
2022/01/19 06:26:53;;;;;;;8.10;4.40;;;;;;;-3.26;85.12;102164.59;4984030;28;20523;-73
2022/01/19 06:29:18;;;;;;;9.03;4.40;;;;;;;-3.25;84.47;102166.41;4988819;28;20030;-72
2022/01/19 06:31:44;;;;;;;10.90;5.07;;;;;;;-3.09;84.76;102175.09;4993620;28;20037;-72
2022/01/19 06:34:09;;;;;;;15.47;6.63;;;;;;;-3.01;83.22;102154.88;4990688;28;20165;-74
2022/01/19 06:36:35;;;;;;;12.13;6.50;;;;;;;-2.67;82.83;102191.72;4987828;28;20034;-74
2022/01/19 06:39:01;;;;;;;13.57;6.23;;;;;;;-2.66;83.70;102178.34;5001910;28;20057;-75
2022/01/19 06:41:27;;;;;;;11.03;5.47;;;;;;;-2.55;83.06;102183.03;5003433;28;20096;-75
2022/01/19 06:43:52;;;;;;;10.73;5.20;;;;;;;-2.77;82.77;102140.09;4993523;28;20651;-74
2022/01/19 06:46:18;;;;;;;10.50;5.27;;;;;;;-2.44;83.43;102189.34;4993604;28;20054;-74
2022/01/19 06:48:43;;;;;;;11.77;5.23;;;;;;;-2.48;84.48;102190.63;4997392;28;20117;-74
2022/01/19 06:51:10;;;;;;;11.47;5.93;;;;;;;-2.58;83.89;102185.19;4999894;28;20510;-73
2022/01/19 06:53:35;;;;;;;13.47;5.90;;;;;;;-2.76;82.19;102143.50;4990016;28;20820;-74
2022/01/19 06:56:01;;;;;;;15.97;6.30;;;;;;;-2.56;82.64;102188.81;4988887;28;20043;-74
2022/01/19 06:58:27;;;;;;;13.60;6.10;;;;;;;-2.48;82.42;102185.56;4994741;28;20034;-74
2022/01/19 07:00:54;;;;;;;10.63;5.00;;;;;;;-2.54;82.55;102197.50;4991915;28;20415;-74
2022/01/19 07:03:19;;;;;;;13.70;4.80;;;;;;;-2.54;83.46;102192.44;5001734;28;20026;-74
2022/01/19 07:05:45;;;;;;;8.83;5.10;;;;;;;-2.56;83.57;102180.34;5003106;28;20018;-74
2022/01/19 07:08:10;;;;;;;13.23;6.90;;;;;;;-2.69;83.60;102147.63;5002537;28;20023;-74
2022/01/19 07:10:36;;;;;;;14.00;7.00;;;;;;;-2.31;83.46;102173.97;5001180;28;20483;-74
2022/01/19 07:13:03;;;;;;;11.83;5.83;;;;;;;-2.10;81.25;102182.25;5000997;28;20411;-74
2022/01/19 07:15:29;;;;;;;13.33;7.70;;;;;;;-2.02;80.24;102176.41;5001186;28;20031;-74
2022/01/19 07:17:55;;;;;;;14.20;7.67;;;;;;;-1.93;80.20;102174.97;5000495;28;20458;-74
2022/01/19 07:20:21;;;;;;;14.80;6.03;;;;;;;-1.63;78.78;102176.66;5002980;28;20508;-74
2022/01/19 07:22:48;;;;;;;10.03;5.50;;;;;;;-1.44;78.52;102182.16;4976041;28;20037;-74
2022/01/19 07:25:14;;;;;;;16.60;9.57;;;;;;;-1.53;76.64;102135.53;5000564;28;20502;-74
2022/01/19 07:27:40;;;;;;;17.27;10.07;;;;;;;-1.27;76.17;102173.91;5001801;28;20030;-74
2022/01/19 07:30:07;;;;;;;17.67;9.13;;;;;;;-0.87;75.51;102187.59;4998794;28;20030;-74
2022/01/19 07:32:34;;;;;;;20.27;10.17;;;;;;;-0.64;75.02;102182.47;4996939;28;20058;-74
2022/01/19 07:35:05;;;;;;;12.80;7.30;;;;;;;-0.81;73.06;102134.97;4998295;28;20087;-73
2022/01/19 07:37:31;;;;;;;13.53;7.13;;;;;;;-0.68;72.88;102176.16;4999926;28;20081;-73
2022/01/19 07:39:57;;;;;;;11.20;5.27;;;;;;;-0.71;73.72;102150.50;5001855;28;20487;-73
2022/01/19 07:42:26;;;;;;;10.83;5.60;;;;;;;-0.40;73.10;102175.75;5000127;28;20038;-73
2022/01/19 07:44:53;;;;;;;11.13;5.20;;;;;;;-0.22;72.90;102177.75;4991205;28;20047;-72
2022/01/19 07:47:21;;;;;;;12.10;4.70;;;;;;;-0.03;71.93;102184.78;5001246;28;20305;-72
2022/01/19 07:49:47;;;;;;;12.83;5.00;;;;;;;0.11;70.89;102184.66;4963177;28;20038;-72
2022/01/19 07:52:13;;;;;;;10.20;4.40;;;;;;;0.06;69.74;102180.69;5001952;28;20084;-72
2022/01/19 07:54:38;;;;;;;49.37;22.90;;;;;;;0.04;69.56;102183.78;5001689;28;20420;-72
2022/01/19 07:57:04;;;;;;;11.97;5.60;;;;;;;0.20;68.95;102194.88;5000061;28;20034;-72
2022/01/19 07:59:31;;;;;;;10.60;4.73;;;;;;;0.08;68.71;102140.25;5002226;28;20474;-72
2022/01/19 08:01:57;;;;;;;8.80;4.83;;;;;;;0.53;67.46;102185.56;4989872;28;20041;-72
2022/01/19 08:04:23;;;;;;;9.23;5.10;;;;;;;0.61;67.41;102184.72;4956962;28;20030;-73
2022/01/19 08:06:54;;;;;;;13.60;5.10;;;;;;;0.44;68.17;102133.03;4990554;28;20027;-71
2022/01/19 08:09:22;;;;;;;9.70;5.53;;;;;;;0.87;67.43;102162.00;5000516;28;20361;-72
2022/01/19 08:11:48;;;;;;;8.50;5.57;;;;;;;0.95;65.63;102166.25;4999830;28;20026;-71
2022/01/19 08:14:14;;;;;;;11.73;4.93;;;;;;;0.89;63.83;102174.91;5001855;28;20081;-72
2022/01/19 08:16:39;;;;;;;8.30;4.57;;;;;;;0.69;63.81;102112.72;4991897;28;20120;-73
2022/01/19 08:19:05;;;;;;;7.97;4.40;;;;;;;1.15;63.39;102163.94;5000386;28;20068;-72
2022/01/19 08:21:30;;;;;;;10.33;5.10;;;;;;;1.07;63.41;102163.16;5000950;28;20102;-72
2022/01/19 08:23:56;;;;;;;11.67;7.03;;;;;;;1.03;64.40;102151.75;4999873;28;20022;-73
2022/01/19 08:26:21;;;;;;;10.80;4.73;;;;;;;0.94;62.73;102155.91;5000448;28;20057;-71
2022/01/19 08:28:47;;;;;;;8.57;3.60;;;;;;;0.96;63.02;102149.34;4999762;28;20026;-73
2022/01/19 08:31:13;;;;;;;11.17;4.20;;;;;;;1.23;63.71;102163.97;4998079;28;20030;-73
2022/01/19 08:33:38;;;;;;;7.07;3.90;;;;;;;0.95;66.51;102115.38;4994369;28;20031;-74
2022/01/19 08:36:04;;;;;;;9.13;4.10;;;;;;;1.29;66.39;102161.16;4998858;28;20022;-73
2022/01/19 08:38:29;;;;;;;10.37;4.30;;;;;;;1.51;65.90;102170.94;4994982;28;20062;-73
2022/01/19 08:40:55;;;;;;;10.60;4.43;;;;;;;1.53;64.85;102160.19;5000655;28;20029;-73
2022/01/19 08:43:20;;;;;;;8.27;4.63;;;;;;;1.50;64.37;102171.72;5001439;28;20539;-73
2022/01/19 08:45:46;;;;;;;8.03;2.80;;;;;;;1.38;61.15;102151.00;4999916;28;20023;-73
2022/01/19 08:48:12;;;;;;;7.37;3.67;;;;;;;1.47;61.48;102146.88;5000468;28;20054;-72
2022/01/19 08:50:38;;;;;;;8.53;3.67;;;;;;;1.54;60.30;102154.34;5001481;28;20064;-72
2022/01/19 08:53:03;;;;;;;7.37;3.80;;;;;;;1.73;60.95;102149.47;4999741;28;20403;-72
2022/01/19 08:55:29;;;;;;;10.10;4.47;;;;;;;1.93;61.28;102145.44;5001565;28;20451;-72
2022/01/19 08:57:55;;;;;;;15.50;7.37;;;;;;;1.96;60.29;102153.38;4995625;28;20090;-73
2022/01/19 09:00:21;;;;;;;13.83;6.77;;;;;;;1.61;60.55;102138.06;4998527;28;20182;-73
2022/01/19 09:02:49;;;;;;;16.90;7.80;;;;;;;1.79;59.87;102159.34;4989069;28;20529;-73
2022/01/19 09:05:15;;;;;;;7.90;4.30;;;;;;;1.82;59.25;102138.38;5000134;28;20026;-72
2022/01/19 09:07:41;;;;;;;6.93;3.80;;;;;;;2.10;58.49;102149.66;5000107;28;20029;-72
2022/01/19 09:10:08;;;;;;;9.77;4.03;;;;;;;2.07;58.35;102155.34;5000075;28;20025;-72
2022/01/19 09:12:35;;;;;;;7.83;4.00;;;;;;;2.23;58.04;102139.91;5001423;28;20165;-72
2022/01/19 09:15:02;;;;;;;6.73;3.90;;;;;;;2.37;56.33;102118.31;5000164;28;20074;-72
2022/01/19 09:17:28;;;;;;;8.00;4.00;;;;;;;2.64;57.65;102133.56;4994971;28;20089;-72
2022/01/19 09:19:54;;;;;;;9.50;4.00;;;;;;;2.58;56.39;102121.13;4995931;28;20038;-73
2022/01/19 09:22:19;;;;;;;9.73;3.63;;;;;;;2.63;56.80;102112.28;4993740;28;20110;-74
2022/01/19 09:24:45;;;;;;;9.13;4.63;;;;;;;2.77;55.88;102122.88;4987456;28;20120;-75
2022/01/19 09:27:13;;;;;;;7.87;3.97;;;;;;;2.47;57.28;102121.72;4987314;28;20033;-74
2022/01/19 09:29:42;;;;;;;10.83;6.37;;;;;;;2.38;57.05;102098.81;4998119;28;20030;-74
2022/01/19 09:32:10;;;;;;;8.87;3.63;;;;;;;2.17;56.97;102059.41;4994374;28;20022;-74
2022/01/19 09:34:36;;;;;;;8.47;4.13;;;;;;;2.58;55.81;102098.19;4995879;28;20109;-75
2022/01/19 09:37:02;;;;;;;10.23;4.47;;;;;;;2.53;55.30;102102.84;4973926;28;20117;-73
2022/01/19 09:39:27;;;;;;;9.20;4.10;;;;;;;2.38;54.49;102071.69;4991950;28;20064;-73
2022/01/19 09:41:54;;;;;;;11.07;4.10;;;;;;;2.77;54.96;102102.47;4997843;28;20057;-73
2022/01/19 09:44:22;;;;;;;8.63;3.53;;;;;;;2.76;53.42;102104.13;4992679;28;20042;-73
2022/01/19 09:46:49;;;;;;;9.70;4.70;;;;;;;2.98;55.42;102101.94;4986876;28;20051;-72
2022/01/19 09:49:17;;;;;;;7.17;3.80;;;;;;;2.87;55.07;102097.50;4999784;28;20034;-73
2022/01/19 09:51:46;;;;;;;7.37;4.10;;;;;;;3.04;56.70;102107.63;4999671;28;20495;-73
2022/01/19 09:54:18;;;;;;;7.77;4.07;;;;;;;3.12;53.96;102103.22;4998042;28;20034;-74
2022/01/19 09:56:45;;;;;;;7.63;3.63;;;;;;;3.01;53.75;102109.00;4997222;28;20096;-73
2022/01/19 09:59:13;;;;;;;8.43;3.92;;;;;;;2.69;54.36;102064.41;4999552;28;20036;-73
2022/01/19 10:02:05;;;;;;;7.57;3.67;;;;;;;2.97;53.23;102054.22;5004820;28;20034;-74
2022/01/19 10:04:34;;;;;;;7.05;3.88;;;;;;;3.40;54.60;102091.38;5001517;28;20037;-73
2022/01/19 10:07:11;;;;;;;9.45;4.07;;;;;;;3.46;52.87;102079.94;5003243;28;20484;-73
2022/01/19 10:09:50;;;;;;;6.78;3.58;;;;;;;3.56;52.21;102031.50;4997121;28;20081;-74
2022/01/19 10:18:11;;;;;;;10.23;4.47;;;;;;;3.88;51.88;102076.94;4995232;28;20053;-73
2022/01/19 10:20:36;;;;;;;9.55;4.43;;;;;;;3.99;50.34;102076.22;5002025;28;20034;-70
2022/01/19 10:23:03;;;;;;;8.82;4.25;;;;;;;4.18;49.74;102071.06;5002668;28;20390;-72
2022/01/19 10:25:49;;;;;;;10.60;3.95;;;;;;;4.05;49.64;102061.44;4999237;28;20108;-72
2022/01/19 10:28:14;;;;;;;5.53;3.25;;;;;;;4.32;48.43;102063.75;4994494;28;20081;-73
2022/01/19 10:30:41;;;;;;;8.65;4.03;;;;;;;4.50;48.02;102044.00;5001411;28;20436;-75
2022/01/19 10:33:07;;;;;;;8.63;3.55;;;;;;;4.17;47.20;101968.72;5001971;28;20076;-75
2022/01/19 10:35:37;;;;;;;6.15;3.05;;;;;;;4.26;47.58;102035.06;5003721;28;20435;-75
2022/01/19 10:38:28;;;;;;;7.82;3.72;;;;;;;4.69;47.77;102039.69;5002374;28;20022;-77
2022/01/19 10:40:54;;;;;;;7.15;3.30;;;;;;;4.43;48.09;102044.22;4942753;29;20067;-73
2022/01/19 10:43:31;;;;;;;5.90;2.78;;;;;;;4.00;47.75;102039.69;4941038;29;20516;-74
2022/01/19 10:46:02;;;;;;;8.75;2.92;;;;;;;4.14;47.54;102045.13;4940763;29;20194;-73
2022/01/19 10:48:36;;;;;;;6.93;3.40;;;;;;;4.17;47.16;102005.38;4941606;29;20123;-75
2022/01/19 10:51:29;;;;;;;5.70;2.88;;;;;;;4.50;45.80;102021.88;4938503;29;20106;-73
2022/01/19 10:54:15;;;;;;;6.78;2.95;;;;;;;4.79;44.74;102015.78;4931744;29;20074;-73
2022/01/19 10:56:42;;;;;;;7.50;3.30;;;;;;;4.60;44.02;102007.31;4927182;29;20187;-72
2022/01/19 10:59:11;;;;;;;4.63;1.95;;;;;;;4.03;43.52;102011.84;4930996;29;20043;-73
2022/01/19 11:01:49;;;;;;;6.32;2.30;;;;;;;4.11;42.12;102003.97;4930345;29;20062;-74
2022/01/19 11:04:17;;;;;;;5.25;2.70;;;;;;;4.31;43.02;102000.56;4929884;29;20047;-74
2022/01/19 11:06:42;;;;;;;6.35;2.90;;;;;;;4.49;42.42;101966.38;4930526;29;20028;-74
2022/01/19 11:09:13;;;;;;;7.65;2.70;;;;;;;4.54;44.54;101980.44;4930599;29;20102;-70
2022/01/19 11:11:39;;;;;;;6.85;2.63;;;;;;;4.49;41.80;101984.28;4930555;29;20131;-72
2022/01/19 11:14:06;;;;;;;5.57;2.65;;;;;;;4.20;41.80;101961.31;4928908;29;20119;-71
2022/01/19 11:16:33;;;;;;;9.95;3.05;;;;;;;4.07;45.46;101918.44;4931687;29;20032;-70
2022/01/19 11:18:59;;;;;;;5.82;3.22;;;;;;;4.38;47.67;101928.75;4948455;29;20532;-72
2022/01/19 11:21:30;;;;;;;6.55;3.03;;;;;;;4.53;46.85;101957.31;4950278;28;20043;-72
2022/01/19 11:24:08;;;;;;;9.63;3.55;;;;;;;4.59;47.54;101965.50;4949197;28;20043;-71
2022/01/19 11:26:35;;;;;;;8.23;3.88;;;;;;;4.49;45.87;101960.38;4918021;29;20110;-70
2022/01/19 11:29:18;;;;;;;8.05;3.67;;;;;;;4.60;45.97;101951.94;4948297;29;20038;-70
2022/01/19 11:31:45;;;;;;;7.25;2.10;;;;;;;4.21;45.33;101964.00;4950190;28;20034;-72
2022/01/19 11:34:11;;;;;;;7.15;3.72;;;;;;;4.14;45.69;101958.22;4991130;28;20027;-72
2022/01/19 11:36:42;;;;;;;8.15;3.75;;;;;;;4.14;46.08;101940.34;4991822;28;20030;-74
2022/01/19 11:39:07;;;;;;;7.97;3.67;;;;;;;4.23;47.55;101958.13;4991524;28;20520;-74
2022/01/19 11:41:44;;;;;;;13.07;5.80;;;;;;;4.13;46.28;101949.66;4991264;28;20118;-71
2022/01/19 11:44:28;;;;;;;7.43;2.90;;;;;;;4.42;44.14;101947.81;4991848;28;20038;-70
2022/01/19 11:46:55;;;;;;;8.52;2.80;;;;;;;4.27;45.46;101926.94;4991049;28;20058;-76
2022/01/19 11:49:45;;;;;;;5.63;3.22;;;;;;;4.43;45.30;101941.94;4974297;28;20022;-71
2022/01/19 11:52:11;;;;;;;8.20;3.00;;;;;;;4.68;43.43;101915.09;4991179;28;20034;-72
2022/01/19 11:54:38;;;;;;;5.00;3.00;;;;;;;4.53;45.42;101899.34;4991376;28;20026;-72
2022/01/19 11:57:07;;;;;;;7.60;3.67;;;;;;;4.55;45.56;101930.19;4990525;28;20035;-71
2022/01/19 11:59:47;;;;;;;7.30;3.38;;;;;;;4.63;45.48;101929.16;4990652;28;20038;-72
2022/01/19 12:02:26;;;;;;;7.95;3.72;;;;;;;4.21;45.99;101883.84;5001112;28;20496;-72
2022/01/19 12:05:01;;;;;;;17.83;8.68;;;;;;;4.25;47.28;101919.16;4991584;28;20034;-71
2022/01/19 12:07:58;;;;;;;8.00;3.50;;;;;;;4.30;47.07;101914.41;4991357;28;20026;-75
2022/01/19 12:10:46;;;;;;;10.30;4.15;;;;;;;4.36;46.40;101886.81;4991637;28;20022;-71
2022/01/19 12:13:27;;;;;;;8.32;3.95;;;;;;;4.26;45.42;101894.47;4987376;28;20096;-73
2022/01/19 12:16:00;;;;;;;7.22;3.58;;;;;;;4.17;44.81;101898.03;4984311;28;20057;-70
2022/01/19 12:18:37;;;;;;;6.72;3.25;;;;;;;4.18;43.87;101896.38;4983896;28;20057;-72
2022/01/19 12:21:03;;;;;;;7.72;2.88;;;;;;;4.13;44.41;101842.31;4991083;28;20054;-73
2022/01/19 12:23:31;;;;;;;4.85;2.58;;;;;;;4.35;40.19;101877.38;4971972;28;20065;-73
2022/01/19 12:25:59;;;;;;;7.63;3.50;;;;;;;4.28;40.58;101865.72;4987113;28;20510;-71
2022/01/19 12:28:47;;;;;;;6.03;2.55;;;;;;;4.40;43.95;101877.75;4985570;28;20029;-72
2022/01/19 12:31:25;;;;;;;9.55;2.75;;;;;;;4.41;43.58;101867.66;4989843;28;20408;-72
2022/01/19 12:34:11;;;;;;;19.80;8.25;;;;;;;4.64;44.14;101861.03;4990089;28;20026;-72
2022/01/19 12:36:42;;;;;;;9.70;3.78;;;;;;;4.38;46.79;101826.47;4988696;28;20627;-70
2022/01/19 12:39:26;;;;;;;5.93;2.58;;;;;;;4.43;43.56;101867.78;4990081;28;20026;-71
2022/01/19 12:42:00;;;;;;;4.72;2.92;;;;;;;4.38;43.37;101869.94;4990012;28;20030;-70
2022/01/19 12:44:34;;;;;;;7.00;2.85;;;;;;;4.45;42.38;101872.25;4989953;28;20113;-69
2022/01/19 12:47:01;;;;;;;9.70;2.78;;;;;;;4.50;43.36;101868.44;4989190;28;20069;-72
2022/01/19 12:49:29;;;;;;;5.20;2.70;;;;;;;4.54;42.19;101867.03;4989859;28;20033;-78
2022/01/19 12:51:56;;;;;;;6.28;2.70;;;;;;;4.15;41.95;101843.34;4990044;28;20026;-73